METAR Data
IDs: Format: Raw Decoded Include TAF

Data at: 1555 UTC 18 Aug 2019

PAOU 181546Z AUTO 07005KT 6SM BR SCT009 14/13 A3018 RMK AO2
PAOU 181537Z AUTO 08005KT 9SM BKN009 14/13 A3018 RMK AO2 CIG 007V012
PAOU 181529Z AUTO 11004KT 8SM SCT009 14/13 A3018 RMK AO2
PAOU 181456Z AUTO 07007KT 10SM OVC009 14/14 A3019 RMK AO2 SLP221 T01440139 56014
PAOU 181356Z AUTO 07003KT 8SM OVC007 14/14 A3020 RMK AO2 SLP226 T01440139
PAOU 181256Z AUTO 05003KT 8SM BKN009 14/14 A3021 RMK AO2 CIG 006V010 SLP230 T01440139
PAOU 181235Z AUTO 06007KT 10SM SCT009 14/14 A3022 RMK AO2
PAOU 181156Z AUTO 06008KT 10SM OVC011 15/14 A3023 RMK AO2 SLP236 T01500139 10150 20144 58009
PAOU 181146Z AUTO 07008KT 10SM OVC011 15/14 A3023 RMK AO2
PAOU 181056Z AUTO 06011KT 10SM OVC007 15/14 A3025 RMK AO2 CIG 006V011 SLP241 T01500139
PAOU 181046Z AUTO 06010KT 10SM OVC007 15/14 A3024 RMK AO2 CIG 005V010
PAOU 181023Z AUTO 06007KT 10SM BKN005 14/14 A3025 RMK AO2
PAOU 180956Z AUTO 04010KT 10SM FEW005 14/14 A3025 RMK AO2 SLP243 T01440139
PAOU 180856Z AUTO 04010KT 10SM CLR 15/14 A3026 RMK AO2 SLP245 T01500139 401670139 58006
PAOU 180816Z AUTO 04009KT 9SM SCT006 15/14 A3026 RMK AO2
PAOU 180756Z AUTO 05009KT 9SM BKN006 15/14 A3027 RMK AO2 SLP250 T01500139
PAOU 180745Z AUTO 04011KT 9SM SCT006 15/14 A3027 RMK AO2
PAOU 180656Z AUTO 04011KT 9SM CLR 15/14 A3027 RMK AO2 SLP251 T01500139
PAOU 180556Z AUTO 03012KT 9SM CLR 15/14 A3028 RMK AO2 SLP251 T01500139 10167 20150 58012
PAOU 180456Z AUTO 03012KT 10SM FEW007 16/14 A3029 RMK AO2 SLP256 T01560139
PAOU 180428Z AUTO 03012KT 9SM FEW007 16/14 A3030 RMK AO2
PAOU 180408Z AUTO 03010KT 9SM SCT011 16/14 A3030 RMK AO2
PAOU 180356Z AUTO 02012KT 9SM BKN011 16/14 A3030 RMK AO2 SLP261 T01610139
PAOU 180256Z AUTO 03012KT 8SM OVC011 16/14 A3031 RMK AO2 SLP264 T01610139 58017
PAOU 180156Z AUTO 03012KT 8SM OVC011 16/14 A3033 RMK AO2 SLP270 T01610144
PAOU 180056Z AUTO 01010KT 10SM OVC011 16/14 A3035 RMK AO2 SLP277 T01610144
PAOU 172356Z AUTO 01010KT 10SM OVC013 16/14 A3036 RMK AO2 SLP281 60000 T01610144 10167 20144 58016
PAOU 172342Z AUTO 01007KT 10SM OVC013 17/14 A3037 RMK AO2
PAOU 172256Z AUTO 36007KT 10SM OVC017 16/14 A3038 RMK AO2 SLP287 T01610144
PAOU 172156Z AUTO 02005KT 10SM OVC017 16/14 A3040 RMK AO2 RAE27 SLP292 P0000 T01610144
PAOU 172147Z AUTO 01005KT 10SM OVC017 16/14 A3040 RMK AO2 RAE27 P0000
PAOU 172128Z AUTO 03007KT 7SM SCT006 OVC014 15/14 A3040 RMK AO2 RAE27 P0000
PAOU 172121Z AUTO 04006KT 3SM -RA BR BKN004 OVC012 15/14 A3040 RMK AO2 CIG 002V007 P0000
PAOU 172110Z AUTO 03008KT 1 3/4SM -RA BR OVC004 15/14 A3040 RMK AO2 CIG 002V007 P0000
PAOU 172105Z AUTO 05006KT 4SM BR OVC004 15/14 A3040 RMK AO2 RAE02 CIG 002V007 P0000
PAOU 172056Z AUTO 05005KT 2 1/2SM -RA BR OVC004 14/14 A3041 RMK AO2 VIS 1 1/4V5 RAB07 CIG 002V007 SLP296 P0000 60000 T01440144 56008
PAOU 172053Z AUTO 05005KT 1 3/4SM -RA BR OVC004 14/14 A3041 RMK AO2 VIS 1V3 RAB07 CIG 002V007 P0000
PAOU 172021Z AUTO 05005KT 1 1/2SM -RA BR OVC008 14/13 A3041 RMK AO2 RAB07 CIG 004V012 P0000
PAOU 172011Z AUTO 04006KT 2 1/2SM -RA BR BKN008 OVC011 14/13 A3041 RMK AO2 VIS 1 1/2V3 RAB07 CIG 005V011 P0000
PAOU 171956Z AUTO 05007KT 8SM OVC013 16/13 A3042 RMK AO2 SLP299 T01560128
PAOU 171949Z AUTO 04007KT 10SM OVC013 15/13 A3041 RMK AO2
PAOU 171919Z AUTO 04005KT 10SM OVC015 15/13 A3042 RMK AO2
PAOU 171856Z AUTO 03011KT 8SM OVC012 14/13 A3043 RMK AO2 SLP304 T01440128
PAOU 171756Z AUTO 04011KT 10SM OVC012 14/12 A3044 RMK AO2 SLP307 T01440122 10144 20139 56008
PAOU 171656Z AUTO 03009KT 10SM OVC012 14/12 A3045 RMK AO2 SLP310 T01390122
PAOU 171556Z AUTO 03012KT 10SM OVC012 14/12 A3045 RMK AO2 SLP311 T01440122
PAOU 171516Z AUTO 03010KT 10SM BKN012 14/13 A3046 RMK AO2
PAOU 171456Z AUTO 02008KT 10SM CLR 14/13 A3046 RMK AO2 SLP315 T01390128 56006
PAOU 171356Z AUTO 02008KT 10SM CLR 14/13 A3047 RMK AO2 SLP317 T01440128
PAOU 171256Z AUTO 03006KT 10SM CLR 14/13 A3047 RMK AO2 SLP316 T01440128
PAOU 171156Z AUTO 04008KT 10SM CLR 14/13 A3048 RMK AO2 SLP321 T01440128 10150 20144 58004
PAOU 171056Z AUTO 04008KT 10SM CLR 14/13 A3049 RMK AO2 SLP323 T01440128
PAOU 170956Z AUTO 05008KT 10SM CLR 14/12 A3050 RMK AO2 SLP326 T01440122
PAOU 170856Z AUTO 04010KT 10SM CLR 14/13 A3049 RMK AO2 SLP325 T01440128 401720139 58005
PAOU 170756Z AUTO 04008KT 10SM CLR 14/13 A3050 RMK AO2 SLP327 T01440128
PAOU 170656Z AUTO 04008KT 10SM CLR 14/13 A3051 RMK AO2 SLP331 T01440128
PAOU 170556Z AUTO 03010KT 10SM CLR 15/13 A3051 RMK AO2 SLP330 T01500128 10172 20150 56006
PAOU 170456Z AUTO 03010KT 10SM CLR 16/13 A3051 RMK AO2 SLP331 T01560128
PAOU 170356Z AUTO 03012KT 10SM CLR 16/13 A3052 RMK AO2 SLP335 T01560128